sensor_id;sensor_type;location;lat;lon;timestamp;pressure;altitude;pressure_sealevel;temperature
45701;BMP280;36277;32.852;-116.998;2023-05-21T00:01:15;100253.56;;;25.99
45701;BMP280;36277;32.852;-116.998;2023-05-21T00:03:43;100255.13;;;26.14
45701;BMP280;36277;32.852;-116.998;2023-05-21T00:06:14;100258.41;;;26.24
45701;BMP280;36277;32.852;-116.998;2023-05-21T00:08:41;100253.47;;;26.20
45701;BMP280;36277;32.852;-116.998;2023-05-21T00:11:08;100253.31;;;25.94
45701;BMP280;36277;32.852;-116.998;2023-05-21T00:13:34;100257.81;;;25.74
45701;BMP280;36277;32.852;-116.998;2023-05-21T00:16:00;100260.84;;;25.30
45701;BMP280;36277;32.852;-116.998;2023-05-21T00:18:26;100259.53;;;24.70
45701;BMP280;36277;32.852;-116.998;2023-05-21T00:20:53;100258.22;;;25.23
45701;BMP280;36277;32.852;-116.998;2023-05-21T00:23:19;100266.56;;;25.50
45701;BMP280;36277;32.852;-116.998;2023-05-21T00:25:46;100260.78;;;25.72
45701;BMP280;36277;32.852;-116.998;2023-05-21T00:28:12;100266.88;;;25.89
45701;BMP280;36277;32.852;-116.998;2023-05-21T00:30:38;100262.28;;;26.02
45701;BMP280;36277;32.852;-116.998;2023-05-21T00:33:05;100277.28;;;26.14
45701;BMP280;36277;32.852;-116.998;2023-05-21T00:35:32;100275.19;;;26.23
45701;BMP280;36277;32.852;-116.998;2023-05-21T00:37:58;100277.59;;;26.32
45701;BMP280;36277;32.852;-116.998;2023-05-21T00:40:24;100277.69;;;26.11
45701;BMP280;36277;32.852;-116.998;2023-05-21T00:42:53;100280.31;;;25.43
45701;BMP280;36277;32.852;-116.998;2023-05-21T00:45:21;100279.00;;;25.19
45701;BMP280;36277;32.852;-116.998;2023-05-21T00:47:51;100276.31;;;24.69
45701;BMP280;36277;32.852;-116.998;2023-05-21T00:50:21;100272.28;;;25.27
45701;BMP280;36277;32.852;-116.998;2023-05-21T00:52:47;100274.88;;;25.56
45701;BMP280;36277;32.852;-116.998;2023-05-21T00:55:14;100267.41;;;25.78
45701;BMP280;36277;32.852;-116.998;2023-05-21T00:57:40;100273.72;;;25.93
45701;BMP280;36277;32.852;-116.998;2023-05-21T01:00:07;100278.06;;;26.08
45701;BMP280;36277;32.852;-116.998;2023-05-21T01:02:37;100271.34;;;26.17
45701;BMP280;36277;32.852;-116.998;2023-05-21T01:05:03;100277.34;;;26.27
45701;BMP280;36277;32.852;-116.998;2023-05-21T01:07:34;100275.47;;;26.34
45701;BMP280;36277;32.852;-116.998;2023-05-21T01:10:03;100273.38;;;26.42
45701;BMP280;36277;32.852;-116.998;2023-05-21T01:12:31;100270.69;;;26.49
45701;BMP280;36277;32.852;-116.998;2023-05-21T01:15:03;100273.00;;;26.12
45701;BMP280;36277;32.852;-116.998;2023-05-21T01:17:29;100273.94;;;25.22
45701;BMP280;36277;32.852;-116.998;2023-05-21T01:20:00;100271.31;;;25.00
45701;BMP280;36277;32.852;-116.998;2023-05-21T01:22:28;100267.16;;;25.25
45701;BMP280;36277;32.852;-116.998;2023-05-21T01:24:57;100268.97;;;25.59
45701;BMP280;36277;32.852;-116.998;2023-05-21T01:27:23;100271.41;;;25.75
45701;BMP280;36277;32.852;-116.998;2023-05-21T01:29:49;100270.50;;;25.89
45701;BMP280;36277;32.852;-116.998;2023-05-21T01:32:30;100269.13;;;26.06
45701;BMP280;36277;32.852;-116.998;2023-05-21T01:35:07;100274.50;;;26.14
45701;BMP280;36277;32.852;-116.998;2023-05-21T01:37:54;100269.88;;;26.21
45701;BMP280;36277;32.852;-116.998;2023-05-21T01:40:30;100259.03;;;26.26
45701;BMP280;36277;32.852;-116.998;2023-05-21T01:43:00;100265.03;;;26.30
45701;BMP280;36277;32.852;-116.998;2023-05-21T01:45:30;100255.47;;;26.38
45701;BMP280;36277;32.852;-116.998;2023-05-21T01:47:57;100260.03;;;26.46
45701;BMP280;36277;32.852;-116.998;2023-05-21T01:50:24;100254.69;;;26.51
45701;BMP280;36277;32.852;-116.998;2023-05-21T01:52:55;100258.59;;;26.56
45701;BMP280;36277;32.852;-116.998;2023-05-21T01:55:26;100255.00;;;26.29
45701;BMP280;36277;32.852;-116.998;2023-05-21T01:57:53;100260.03;;;25.57
45701;BMP280;36277;32.852;-116.998;2023-05-21T02:00:22;100248.03;;;25.23
45701;BMP280;36277;32.852;-116.998;2023-05-21T02:02:49;100252.75;;;25.29
45701;BMP280;36277;32.852;-116.998;2023-05-21T02:05:16;100262.59;;;25.59
45701;BMP280;36277;32.852;-116.998;2023-05-21T02:07:43;100263.41;;;25.80
45701;BMP280;36277;32.852;-116.998;2023-05-21T02:10:10;100269.06;;;25.93
45701;BMP280;36277;32.852;-116.998;2023-05-21T02:12:37;100266.56;;;26.05
45701;BMP280;36277;32.852;-116.998;2023-05-21T02:15:04;100264.50;;;26.13
45701;BMP280;36277;32.852;-116.998;2023-05-21T02:17:30;100270.06;;;26.20
45701;BMP280;36277;32.852;-116.998;2023-05-21T02:19:59;100265.81;;;26.17
45701;BMP280;36277;32.852;-116.998;2023-05-21T02:22:43;100265.44;;;26.33
45701;BMP280;36277;32.852;-116.998;2023-05-21T02:25:10;100264.81;;;26.31
45701;BMP280;36277;32.852;-116.998;2023-05-21T02:27:38;100259.75;;;26.41
45701;BMP280;36277;32.852;-116.998;2023-05-21T02:30:07;100265.75;;;26.44
45701;BMP280;36277;32.852;-116.998;2023-05-21T02:32:34;100267.28;;;26.47
45701;BMP280;36277;32.852;-116.998;2023-05-21T02:35:01;100274.31;;;26.49
45701;BMP280;36277;32.852;-116.998;2023-05-21T02:37:29;100277.50;;;26.53
45701;BMP280;36277;32.852;-116.998;2023-05-21T02:39:58;100276.25;;;26.55
45701;BMP280;36277;32.852;-116.998;2023-05-21T02:42:25;100267.53;;;26.58
45701;BMP280;36277;32.852;-116.998;2023-05-21T02:44:51;100279.44;;;26.59
45701;BMP280;36277;32.852;-116.998;2023-05-21T02:47:19;100278.53;;;26.45
45701;BMP280;36277;32.852;-116.998;2023-05-21T02:49:48;100277.69;;;26.45
45701;BMP280;36277;32.852;-116.998;2023-05-21T02:52:14;100278.38;;;26.53
45701;BMP280;36277;32.852;-116.998;2023-05-21T02:54:41;100282.88;;;26.61
45701;BMP280;36277;32.852;-116.998;2023-05-21T02:57:07;100276.94;;;26.64
45701;BMP280;36277;32.852;-116.998;2023-05-21T02:59:33;100269.91;;;26.61
45701;BMP280;36277;32.852;-116.998;2023-05-21T03:01:59;100281.81;;;26.62
45701;BMP280;36277;32.852;-116.998;2023-05-21T03:04:26;100295.38;;;26.50
45701;BMP280;36277;32.852;-116.998;2023-05-21T03:06:53;100284.00;;;26.39
45701;BMP280;36277;32.852;-116.998;2023-05-21T03:09:23;100293.13;;;26.33
45701;BMP280;36277;32.852;-116.998;2023-05-21T03:11:49;100292.72;;;26.36
45701;BMP280;36277;32.852;-116.998;2023-05-21T03:14:16;100292.97;;;26.41
45701;BMP280;36277;32.852;-116.998;2023-05-21T03:16:42;100294.66;;;26.36
45701;BMP280;36277;32.852;-116.998;2023-05-21T03:19:12;100292.59;;;26.44
45701;BMP280;36277;32.852;-116.998;2023-05-21T03:21:38;100294.75;;;26.48
45701;BMP280;36277;32.852;-116.998;2023-05-21T03:24:04;100299.47;;;26.61
45701;BMP280;36277;32.852;-116.998;2023-05-21T03:26:31;100288.81;;;26.58
45701;BMP280;36277;32.852;-116.998;2023-05-21T03:28:57;100303.53;;;26.58
45701;BMP280;36277;32.852;-116.998;2023-05-21T03:31:24;100305.66;;;26.63
45701;BMP280;36277;32.852;-116.998;2023-05-21T03:33:51;100302.00;;;26.56
45701;BMP280;36277;32.852;-116.998;2023-05-21T03:36:18;100304.75;;;26.49
45701;BMP280;36277;32.852;-116.998;2023-05-21T03:38:45;100303.28;;;26.53
45701;BMP280;36277;32.852;-116.998;2023-05-21T03:41:12;100283.94;;;26.60
45701;BMP280;36277;32.852;-116.998;2023-05-21T03:43:38;100282.06;;;26.67
45701;BMP280;36277;32.852;-116.998;2023-05-21T03:46:04;100275.44;;;26.68
45701;BMP280;36277;32.852;-116.998;2023-05-21T03:48:30;100278.38;;;26.53
45701;BMP280;36277;32.852;-116.998;2023-05-21T03:50:57;100278.81;;;26.57
45701;BMP280;36277;32.852;-116.998;2023-05-21T03:53:23;100281.81;;;26.62
45701;BMP280;36277;32.852;-116.998;2023-05-21T03:55:49;100276.69;;;26.59
45701;BMP280;36277;32.852;-116.998;2023-05-21T03:58:23;100274.97;;;26.58
45701;BMP280;36277;32.852;-116.998;2023-05-21T04:00:50;100272.88;;;26.66
45701;BMP280;36277;32.852;-116.998;2023-05-21T04:03:16;100284.16;;;26.65
45701;BMP280;36277;32.852;-116.998;2023-05-21T04:05:42;100279.69;;;26.64
45701;BMP280;36277;32.852;-116.998;2023-05-21T04:08:09;100288.25;;;26.69
45701;BMP280;36277;32.852;-116.998;2023-05-21T04:10:36;100289.94;;;26.70
45701;BMP280;36277;32.852;-116.998;2023-05-21T04:13:02;100302.50;;;26.66
45701;BMP280;36277;32.852;-116.998;2023-05-21T04:15:28;100305.50;;;26.71
45701;BMP280;36277;32.852;-116.998;2023-05-21T04:17:55;100316.25;;;26.53
45701;BMP280;36277;32.852;-116.998;2023-05-21T04:20:21;100311.97;;;26.44
45701;BMP280;36277;32.852;-116.998;2023-05-21T04:22:48;100310.34;;;26.29
45701;BMP280;36277;32.852;-116.998;2023-05-21T04:25:14;100324.63;;;26.32
45701;BMP280;36277;32.852;-116.998;2023-05-21T04:27:40;100322.91;;;26.31
45701;BMP280;36277;32.852;-116.998;2023-05-21T04:30:08;100322.88;;;26.25
45701;BMP280;36277;32.852;-116.998;2023-05-21T04:32:35;100330.97;;;26.26
45701;BMP280;36277;32.852;-116.998;2023-05-21T04:35:03;100328.66;;;25.54
45701;BMP280;36277;32.852;-116.998;2023-05-21T04:37:29;100341.59;;;24.62
45701;BMP280;36277;32.852;-116.998;2023-05-21T04:40:00;100337.66;;;23.99
45701;BMP280;36277;32.852;-116.998;2023-05-21T04:42:27;100346.34;;;23.28
45701;BMP280;36277;32.852;-116.998;2023-05-21T04:44:54;100337.28;;;22.90
45701;BMP280;36277;32.852;-116.998;2023-05-21T04:47:21;100346.81;;;22.41
45701;BMP280;36277;32.852;-116.998;2023-05-21T04:49:47;100349.28;;;22.04
45701;BMP280;36277;32.852;-116.998;2023-05-21T04:52:15;100342.13;;;21.79
45701;BMP280;36277;32.852;-116.998;2023-05-21T04:54:42;100335.97;;;21.61
45701;BMP280;36277;32.852;-116.998;2023-05-21T04:57:10;100330.28;;;21.63
45701;BMP280;36277;32.852;-116.998;2023-05-21T04:59:36;100332.81;;;22.89
45701;BMP280;36277;32.852;-116.998;2023-05-21T05:02:03;100338.19;;;23.35
45701;BMP280;36277;32.852;-116.998;2023-05-21T05:04:30;100337.09;;;23.66
45701;BMP280;36277;32.852;-116.998;2023-05-21T05:06:56;100329.34;;;23.84
45701;BMP280;36277;32.852;-116.998;2023-05-21T05:09:23;100335.94;;;23.98
45701;BMP280;36277;32.852;-116.998;2023-05-21T05:11:50;100328.97;;;23.87
45701;BMP280;36277;32.852;-116.998;2023-05-21T05:14:16;100344.44;;;22.68
45701;BMP280;36277;32.852;-116.998;2023-05-21T05:16:42;100335.31;;;22.21
45701;BMP280;36277;32.852;-116.998;2023-05-21T05:19:08;100327.88;;;21.52
45701;BMP280;36277;32.852;-116.998;2023-05-21T05:21:35;100332.78;;;22.12
45701;BMP280;36277;32.852;-116.998;2023-05-21T05:24:02;100332.63;;;22.90
45701;BMP280;36277;32.852;-116.998;2023-05-21T05:26:28;100328.09;;;23.27
45701;BMP280;36277;32.852;-116.998;2023-05-21T05:28:55;100324.19;;;23.44
45701;BMP280;36277;32.852;-116.998;2023-05-21T05:31:21;100313.19;;;23.59
45701;BMP280;36277;32.852;-116.998;2023-05-21T05:33:47;100322.06;;;23.69
45701;BMP280;36277;32.852;-116.998;2023-05-21T05:36:14;100323.53;;;23.79
45701;BMP280;36277;32.852;-116.998;2023-05-21T05:38:40;100315.78;;;23.83
45701;BMP280;36277;32.852;-116.998;2023-05-21T05:41:06;100312.06;;;23.90
45701;BMP280;36277;32.852;-116.998;2023-05-21T05:43:32;100312.75;;;23.92
45701;BMP280;36277;32.852;-116.998;2023-05-21T05:45:59;100306.66;;;23.97
45701;BMP280;36277;32.852;-116.998;2023-05-21T05:48:25;100314.34;;;24.01
45701;BMP280;36277;32.852;-116.998;2023-05-21T05:50:51;100309.88;;;24.00
45701;BMP280;36277;32.852;-116.998;2023-05-21T05:53:19;100314.56;;;24.00
45701;BMP280;36277;32.852;-116.998;2023-05-21T05:55:46;100320.44;;;24.11
45701;BMP280;36277;32.852;-116.998;2023-05-21T05:58:12;100322.47;;;24.17
45701;BMP280;36277;32.852;-116.998;2023-05-21T06:00:38;100316.56;;;24.20
45701;BMP280;36277;32.852;-116.998;2023-05-21T06:03:04;100312.09;;;24.19
45701;BMP280;36277;32.852;-116.998;2023-05-21T06:05:31;100322.56;;;24.23
45701;BMP280;36277;32.852;-116.998;2023-05-21T06:07:57;100321.88;;;24.21
45701;BMP280;36277;32.852;-116.998;2023-05-21T06:10:23;100314.38;;;24.30
45701;BMP280;36277;32.852;-116.998;2023-05-21T06:12:50;100320.16;;;24.35
45701;BMP280;36277;32.852;-116.998;2023-05-21T06:15:16;100317.63;;;24.33
45701;BMP280;36277;32.852;-116.998;2023-05-21T06:17:44;100309.50;;;24.32
45701;BMP280;36277;32.852;-116.998;2023-05-21T06:20:11;100309.50;;;24.32
45701;BMP280;36277;32.852;-116.998;2023-05-21T06:22:37;100311.91;;;24.35
45701;BMP280;36277;32.852;-116.998;2023-05-21T06:25:04;100319.50;;;24.33
45701;BMP280;36277;32.852;-116.998;2023-05-21T06:27:30;100324.81;;;24.34
45701;BMP280;36277;32.852;-116.998;2023-05-21T06:29:57;100316.06;;;24.31
45701;BMP280;36277;32.852;-116.998;2023-05-21T06:32:23;100315.69;;;24.34
45701;BMP280;36277;32.852;-116.998;2023-05-21T06:34:50;100317.41;;;24.35
45701;BMP280;36277;32.852;-116.998;2023-05-21T06:37:19;100308.09;;;24.36
45701;BMP280;36277;32.852;-116.998;2023-05-21T06:39:49;100309.81;;;24.37
45701;BMP280;36277;32.852;-116.998;2023-05-21T06:42:15;100309.72;;;24.45
45701;BMP280;36277;32.852;-116.998;2023-05-21T06:44:41;100310.75;;;24.44
45701;BMP280;36277;32.852;-116.998;2023-05-21T06:47:07;100310.84;;;24.21
45701;BMP280;36277;32.852;-116.998;2023-05-21T06:49:34;100315.69;;;24.19
45701;BMP280;36277;32.852;-116.998;2023-05-21T06:52:00;100309.81;;;24.22
45701;BMP280;36277;32.852;-116.998;2023-05-21T06:54:26;100300.28;;;24.25
45701;BMP280;36277;32.852;-116.998;2023-05-21T06:56:53;100301.44;;;24.16
45701;BMP280;36277;32.852;-116.998;2023-05-21T06:59:19;100306.78;;;22.99
45701;BMP280;36277;32.852;-116.998;2023-05-21T07:01:45;100298.56;;;23.58
45701;BMP280;36277;32.852;-116.998;2023-05-21T07:04:11;100299.88;;;23.85
45701;BMP280;36277;32.852;-116.998;2023-05-21T07:06:37;100298.97;;;23.92
45701;BMP280;36277;32.852;-116.998;2023-05-21T07:09:04;100295.63;;;23.97
45701;BMP280;36277;32.852;-116.998;2023-05-21T07:11:31;100296.09;;;24.00
45701;BMP280;36277;32.852;-116.998;2023-05-21T07:13:58;100296.09;;;24.00
45701;BMP280;36277;32.852;-116.998;2023-05-21T07:16:28;100303.69;;;23.98
45701;BMP280;36277;32.852;-116.998;2023-05-21T07:18:54;100301.22;;;24.03
45701;BMP280;36277;32.852;-116.998;2023-05-21T07:21:21;100299.72;;;24.01
45701;BMP280;36277;32.852;-116.998;2023-05-21T07:23:47;100289.53;;;24.01
45701;BMP280;36277;32.852;-116.998;2023-05-21T07:26:13;100284.03;;;24.01
45701;BMP280;36277;32.852;-116.998;2023-05-21T07:28:40;100289.16;;;24.04
45701;BMP280;36277;32.852;-116.998;2023-05-21T07:31:06;100289.00;;;24.06
45701;BMP280;36277;32.852;-116.998;2023-05-21T07:33:33;100280.88;;;24.04
45701;BMP280;36277;32.852;-116.998;2023-05-21T07:35:59;100273.66;;;24.03
45701;BMP280;36277;32.852;-116.998;2023-05-21T07:38:25;100277.28;;;24.04
45701;BMP280;36277;32.852;-116.998;2023-05-21T07:40:52;100272.81;;;24.03
45701;BMP280;36277;32.852;-116.998;2023-05-21T07:43:18;100274.78;;;24.09
45701;BMP280;36277;32.852;-116.998;2023-05-21T07:45:44;100273.50;;;24.05
45701;BMP280;36277;32.852;-116.998;2023-05-21T07:48:10;100266.06;;;24.05
45701;BMP280;36277;32.852;-116.998;2023-05-21T07:50:37;100259.88;;;24.03
45701;BMP280;36277;32.852;-116.998;2023-05-21T07:53:03;100259.22;;;24.01
45701;BMP280;36277;32.852;-116.998;2023-05-21T07:55:29;100266.06;;;24.05
45701;BMP280;36277;32.852;-116.998;2023-05-21T07:57:55;100254.28;;;24.11
45701;BMP280;36277;32.852;-116.998;2023-05-21T08:00:23;100249.13;;;24.08
45701;BMP280;36277;32.852;-116.998;2023-05-21T08:02:49;100252.94;;;24.07
45701;BMP280;36277;32.852;-116.998;2023-05-21T08:05:16;100240.88;;;24.08
45701;BMP280;36277;32.852;-116.998;2023-05-21T08:07:43;100235.56;;;24.07
45701;BMP280;36277;32.852;-116.998;2023-05-21T08:10:10;100223.56;;;24.14
45701;BMP280;36277;32.852;-116.998;2023-05-21T08:12:36;100230.50;;;24.10
45701;BMP280;36277;32.852;-116.998;2023-05-21T08:15:02;100217.56;;;24.11
45701;BMP280;36277;32.852;-116.998;2023-05-21T08:17:29;100217.16;;;24.13
45701;BMP280;36277;32.852;-116.998;2023-05-21T08:19:55;100228.69;;;24.17
45701;BMP280;36277;32.852;-116.998;2023-05-21T08:22:21;100218.22;;;24.13
45701;BMP280;36277;32.852;-116.998;2023-05-21T08:24:47;100222.97;;;24.18
45701;BMP280;36277;32.852;-116.998;2023-05-21T08:27:14;100220.69;;;24.22
45701;BMP280;36277;32.852;-116.998;2023-05-21T08:29:41;100230.19;;;24.19
45701;BMP280;36277;32.852;-116.998;2023-05-21T08:32:07;100236.19;;;24.23
45701;BMP280;36277;32.852;-116.998;2023-05-21T08:34:34;100232.78;;;24.21
45701;BMP280;36277;32.852;-116.998;2023-05-21T08:37:01;100241.22;;;24.19
45701;BMP280;36277;32.852;-116.998;2023-05-21T08:39:27;100238.69;;;24.18
45701;BMP280;36277;32.852;-116.998;2023-05-21T08:41:59;100236.38;;;24.21
45701;BMP280;36277;32.852;-116.998;2023-05-21T08:44:30;100239.53;;;24.18
45701;BMP280;36277;32.852;-116.998;2023-05-21T08:46:59;100231.31;;;24.25
45701;BMP280;36277;32.852;-116.998;2023-05-21T08:49:29;100241.44;;;24.18
45701;BMP280;36277;32.852;-116.998;2023-05-21T08:51:59;100236.97;;;24.17
45701;BMP280;36277;32.852;-116.998;2023-05-21T08:54:27;100239.53;;;24.18
45701;BMP280;36277;32.852;-116.998;2023-05-21T08:56:54;100242.09;;;24.20
45701;BMP280;36277;32.852;-116.998;2023-05-21T08:59:22;100230.66;;;24.23
45701;BMP280;36277;32.852;-116.998;2023-05-21T09:01:48;100233.84;;;24.20
45701;BMP280;36277;32.852;-116.998;2023-05-21T09:04:16;100222.59;;;24.21
45701;BMP280;36277;32.852;-116.998;2023-05-21T09:06:43;100237.06;;;24.23
45701;BMP280;36277;32.852;-116.998;2023-05-21T09:09:24;100237.22;;;24.22
45701;BMP280;36277;32.852;-116.998;2023-05-21T09:11:52;100233.34;;;24.16
45701;BMP280;36277;32.852;-116.998;2023-05-21T09:14:20;100241.06;;;24.21
45701;BMP280;36277;32.852;-116.998;2023-05-21T09:16:48;100242.09;;;24.20
45701;BMP280;36277;32.852;-116.998;2023-05-21T09:19:14;100243.81;;;24.21
45701;BMP280;36277;32.852;-116.998;2023-05-21T09:21:40;100241.91;;;24.21
45701;BMP280;36277;32.852;-116.998;2023-05-21T09:24:08;100242.47;;;24.17
45701;BMP280;36277;32.852;-116.998;2023-05-21T09:26:35;100233.84;;;24.20
45701;BMP280;36277;32.852;-116.998;2023-05-21T09:29:02;100239.34;;;24.20
45701;BMP280;36277;32.852;-116.998;2023-05-21T09:31:28;100235.63;;;24.13
45701;BMP280;36277;32.852;-116.998;2023-05-21T09:33:55;100245.50;;;24.22
45701;BMP280;36277;32.852;-116.998;2023-05-21T09:36:21;100235.34;;;24.22
45701;BMP280;36277;32.852;-116.998;2023-05-21T09:38:49;100237.88;;;24.24
45701;BMP280;36277;32.852;-116.998;2023-05-21T09:41:17;100235.13;;;24.24
45701;BMP280;36277;32.852;-116.998;2023-05-21T09:43:43;100231.53;;;24.23
45701;BMP280;36277;32.852;-116.998;2023-05-21T09:46:10;100227.72;;;24.24
45701;BMP280;36277;32.852;-116.998;2023-05-21T09:48:38;100221.47;;;24.16
45701;BMP280;36277;32.852;-116.998;2023-05-21T09:51:15;100220.69;;;24.22
45701;BMP280;36277;32.852;-116.998;2023-05-21T09:53:48;100219.84;;;24.21
45701;BMP280;36277;32.852;-116.998;2023-05-21T09:56:19;100228.09;;;24.21
45701;BMP280;36277;32.852;-116.998;2023-05-21T09:58:47;100217.00;;;24.15
45701;BMP280;36277;32.852;-116.998;2023-05-21T10:01:14;100216.34;;;24.13
45701;BMP280;36277;32.852;-116.998;2023-05-21T10:03:41;100218.50;;;24.17
45701;BMP280;36277;32.852;-116.998;2023-05-21T10:06:11;100214.78;;;24.11
45701;BMP280;36277;32.852;-116.998;2023-05-21T10:08:42;100208.59;;;24.23
45701;BMP280;36277;32.852;-116.998;2023-05-21T10:11:11;100210.31;;;24.24
45701;BMP280;36277;32.852;-116.998;2023-05-21T10:13:45;100203.94;;;24.23
45701;BMP280;36277;32.852;-116.998;2023-05-21T10:16:14;100196.66;;;24.16
45701;BMP280;36277;32.852;-116.998;2023-05-21T10:18:41;100202.03;;;24.24
45701;BMP280;36277;32.852;-116.998;2023-05-21T10:21:11;100196.53;;;24.24
45701;BMP280;36277;32.852;-116.998;2023-05-21T10:23:38;100191.66;;;24.26
45701;BMP280;36277;32.852;-116.998;2023-05-21T10:26:07;100194.19;;;24.21
45701;BMP280;36277;32.852;-116.998;2023-05-21T10:28:35;100186.94;;;24.20
45701;BMP280;36277;32.852;-116.998;2023-05-21T10:31:02;100195.00;;;24.21
45701;BMP280;36277;32.852;-116.998;2023-05-21T10:33:29;100188.25;;;24.24
45701;BMP280;36277;32.852;-116.998;2023-05-21T10:35:57;100192.16;;;24.29
45701;BMP280;36277;32.852;-116.998;2023-05-21T10:38:24;100196.06;;;24.20
45701;BMP280;36277;32.852;-116.998;2023-05-21T10:40:52;100197.09;;;24.19
45701;BMP280;36277;32.852;-116.998;2023-05-21T10:57:49;100198.44;;;24.23
45701;BMP280;36277;32.852;-116.998;2023-05-21T10:59:53;100191.59;;;24.19
45701;BMP280;36277;32.852;-116.998;2023-05-21T11:02:20;100181.44;;;24.20
45701;BMP280;36277;32.852;-116.998;2023-05-21T11:05:00;100183.97;;;24.21
45701;BMP280;36277;32.852;-116.998;2023-05-21T11:07:52;100197.97;;;24.20
45701;BMP280;36277;32.852;-116.998;2023-05-21T11:10:36;100182.47;;;24.19
45701;BMP280;36277;32.852;-116.998;2023-05-21T11:13:13;100188.38;;;24.16
45701;BMP280;36277;32.852;-116.998;2023-05-21T11:16:12;100192.28;;;24.07
45701;BMP280;36277;32.852;-116.998;2023-05-21T11:21:15;100177.41;;;24.22
45701;BMP280;36277;32.852;-116.998;2023-05-21T11:23:58;100166.59;;;24.21
45701;BMP280;36277;32.852;-116.998;2023-05-21T11:29:15;100173.25;;;24.12
45701;BMP280;36277;32.852;-116.998;2023-05-21T11:31:46;100174.38;;;24.17
45701;BMP280;36277;32.852;-116.998;2023-05-21T11:34:20;100174.19;;;24.19
45701;BMP280;36277;32.852;-116.998;2023-05-21T11:39:52;100178.78;;;24.12
45701;BMP280;36277;32.852;-116.998;2023-05-21T11:47:26;100171.53;;;24.11
45701;BMP280;36277;32.852;-116.998;2023-05-21T11:49:54;100171.16;;;24.14
45701;BMP280;36277;32.852;-116.998;2023-05-21T11:52:22;100169.75;;;24.18
45701;BMP280;36277;32.852;-116.998;2023-05-21T11:54:51;100166.09;;;24.17
45701;BMP280;36277;32.852;-116.998;2023-05-21T11:57:20;100167.06;;;24.10
45701;BMP280;36277;32.852;-116.998;2023-05-21T11:59:48;100162.13;;;24.20
45701;BMP280;36277;32.852;-116.998;2023-05-21T12:02:21;100164.31;;;24.10
45701;BMP280;36277;32.852;-116.998;2023-05-21T12:04:49;100170.56;;;24.18
45701;BMP280;36277;32.852;-116.998;2023-05-21T12:07:17;100157.00;;;24.17
45701;BMP280;36277;32.852;-116.998;2023-05-21T12:09:48;100160.00;;;24.22
45701;BMP280;36277;32.852;-116.998;2023-05-21T12:12:17;100157.16;;;24.15
45701;BMP280;36277;32.852;-116.998;2023-05-21T12:14:45;100151.09;;;24.20
45701;BMP280;36277;32.852;-116.998;2023-05-21T12:17:15;100158.31;;;24.21
45701;BMP280;36277;32.852;-116.998;2023-05-21T12:19:42;100155.28;;;24.16
45701;BMP280;36277;32.852;-116.998;2023-05-21T12:22:09;100152.13;;;24.19
45701;BMP280;36277;32.852;-116.998;2023-05-21T12:24:36;100155.56;;;24.21
45701;BMP280;36277;32.852;-116.998;2023-05-21T12:27:04;100159.81;;;24.23
45701;BMP280;36277;32.852;-116.998;2023-05-21T12:29:40;100157.25;;;24.22
45701;BMP280;36277;32.852;-116.998;2023-05-21T12:32:09;100158.94;;;24.23
45701;BMP280;36277;32.852;-116.998;2023-05-21T12:34:44;100155.44;;;24.29
45701;BMP280;36277;32.852;-116.998;2023-05-21T12:37:14;100149.19;;;24.20
45701;BMP280;36277;32.852;-116.998;2023-05-21T12:39:43;100161.72;;;24.23
45701;BMP280;36277;32.852;-116.998;2023-05-21T12:42:10;100159.75;;;24.17
45701;BMP280;36277;32.852;-116.998;2023-05-21T12:44:44;100153.19;;;24.18
45701;BMP280;36277;32.852;-116.998;2023-05-21T12:47:12;100151.66;;;24.15
45701;BMP280;36277;32.852;-116.998;2023-05-21T12:49:42;100151.88;;;24.14
45701;BMP280;36277;32.852;-116.998;2023-05-21T12:52:17;100159.75;;;24.17
45701;BMP280;36277;32.852;-116.998;2023-05-21T12:54:50;100154.63;;;24.14
45701;BMP280;36277;32.852;-116.998;2023-05-21T12:57:24;100164.88;;;24.20
45701;BMP280;36277;32.852;-116.998;2023-05-21T12:59:57;100165.66;;;24.14
45701;BMP280;36277;32.852;-116.998;2023-05-21T13:02:37;100163.94;;;24.13
45701;BMP280;36277;32.852;-116.998;2023-05-21T13:05:05;100155.94;;;24.18
45701;BMP280;36277;32.852;-116.998;2023-05-21T13:07:34;100162.13;;;24.20
45701;BMP280;36277;32.852;-116.998;2023-05-21T13:10:02;100161.19;;;24.13
45701;BMP280;36277;32.852;-116.998;2023-05-21T13:12:29;100167.75;;;24.12
45701;BMP280;36277;32.852;-116.998;2023-05-21T13:14:58;100162.13;;;24.20
45701;BMP280;36277;32.852;-116.998;2023-05-21T13:17:26;100165.25;;;24.17
45701;BMP280;36277;32.852;-116.998;2023-05-21T13:20:09;100170.56;;;24.18
45701;BMP280;36277;32.852;-116.998;2023-05-21T13:22:43;100168.19;;;24.15
45701;BMP280;36277;32.852;-116.998;2023-05-21T13:25:21;100176.28;;;24.17
45701;BMP280;36277;32.852;-116.998;2023-05-21T13:27:51;100168.59;;;24.13
45701;BMP280;36277;32.852;-116.998;2023-05-21T13:35:10;100169.91;;;24.16
45701;BMP280;36277;32.852;-116.998;2023-05-21T13:37:38;100166.09;;;24.17
45701;BMP280;36277;32.852;-116.998;2023-05-21T13:40:06;100166.09;;;24.17
45701;BMP280;36277;32.852;-116.998;2023-05-21T13:42:34;100165.25;;;24.17
45701;BMP280;36277;32.852;-116.998;2023-05-21T13:45:02;100167.44;;;24.21
45701;BMP280;36277;32.852;-116.998;2023-05-21T13:47:29;100164.41;;;24.16
45701;BMP280;36277;32.852;-116.998;2023-05-21T13:49:55;100173.06;;;24.13
45701;BMP280;36277;32.852;-116.998;2023-05-21T13:52:21;100179.44;;;24.14
45701;BMP280;36277;32.852;-116.998;2023-05-21T13:54:48;100171.16;;;24.14
45701;BMP280;36277;32.852;-116.998;2023-05-21T13:57:14;100179.44;;;24.14
45701;BMP280;36277;32.852;-116.998;2023-05-21T13:59:41;100184.19;;;24.20